sensor_id;sensor_type;location;lat;lon;timestamp;pressure;altitude;pressure_sealevel;temperature;humidity
34237;BME280;20501;45.956;13.632;2023-05-23T00:01:30;100361.97;;;17.93;66.77
34237;BME280;20501;45.956;13.632;2023-05-23T00:04:02;100363.31;;;17.97;66.68
34237;BME280;20501;45.956;13.632;2023-05-23T00:06:28;100358.91;;;17.81;66.87
34237;BME280;20501;45.956;13.632;2023-05-23T00:08:53;100359.66;;;17.90;66.65
34237;BME280;20501;45.956;13.632;2023-05-23T00:25:14;100354.16;;;18.05;65.84
34237;BME280;20501;45.956;13.632;2023-05-23T00:27:39;100352.66;;;18.02;65.73
34237;BME280;20501;45.956;13.632;2023-05-23T00:30:05;100346.09;;;17.97;65.89
34237;BME280;20501;45.956;13.632;2023-05-23T00:32:31;100354.91;;;17.99;65.97
34237;BME280;20501;45.956;13.632;2023-05-23T00:34:56;100348.75;;;18.12;65.53
34237;BME280;20501;45.956;13.632;2023-05-23T00:37:21;100348.63;;;17.98;65.94
34237;BME280;20501;45.956;13.632;2023-05-23T00:39:47;100357.94;;;17.67;67.21
34237;BME280;20501;45.956;13.632;2023-05-23T00:42:13;100352.97;;;17.56;68.19
34237;BME280;20501;45.956;13.632;2023-05-23T00:44:38;100356.03;;;17.68;67.74
34237;BME280;20501;45.956;13.632;2023-05-23T00:47:05;100355.94;;;17.76;67.95
34237;BME280;20501;45.956;13.632;2023-05-23T00:49:31;100352.66;;;17.87;67.58
34237;BME280;20501;45.956;13.632;2023-05-23T00:51:57;100356.50;;;17.93;67.13
34237;BME280;20501;45.956;13.632;2023-05-23T00:54:25;100347.75;;;17.61;68.76
34237;BME280;20501;45.956;13.632;2023-05-23T00:56:52;100340.69;;;17.88;67.68
34237;BME280;20501;45.956;13.632;2023-05-23T00:59:17;100344.72;;;17.71;67.72
34237;BME280;20501;45.956;13.632;2023-05-23T01:01:45;100342.00;;;17.71;67.64
34237;BME280;20501;45.956;13.632;2023-05-23T01:04:13;100342.94;;;17.63;67.53
34237;BME280;20501;45.956;13.632;2023-05-23T01:06:38;100330.56;;;17.45;67.06
34237;BME280;20501;45.956;13.632;2023-05-23T01:09:05;100332.81;;;17.57;66.35
34237;BME280;20501;45.956;13.632;2023-05-23T01:14:25;100338.44;;;17.70;65.45
34237;BME280;20501;45.956;13.632;2023-05-23T01:17:02;100332.84;;;17.78;65.96
34237;BME280;20501;45.956;13.632;2023-05-23T01:22:45;100346.16;;;17.88;64.34
34237;BME280;20501;45.956;13.632;2023-05-23T01:27:54;100341.28;;;17.84;65.26
34237;BME280;20501;45.956;13.632;2023-05-23T01:30:22;100339.78;;;17.81;64.32
34237;BME280;20501;45.956;13.632;2023-05-23T01:32:50;100332.47;;;17.82;64.57
34237;BME280;20501;45.956;13.632;2023-05-23T01:35:23;100337.47;;;18.00;64.00
34237;BME280;20501;45.956;13.632;2023-05-23T01:37:54;100350.41;;;17.91;64.20
34237;BME280;20501;45.956;13.632;2023-05-23T01:40:21;100345.06;;;17.83;64.52
34237;BME280;20501;45.956;13.632;2023-05-23T01:42:46;100340.44;;;17.83;64.52
34237;BME280;20501;45.956;13.632;2023-05-23T01:45:13;100345.84;;;17.76;64.75
34237;BME280;20501;45.956;13.632;2023-05-23T01:47:39;100337.97;;;17.52;65.62
34237;BME280;20501;45.956;13.632;2023-05-23T01:50:07;100337.50;;;17.63;65.17
34237;BME280;20501;45.956;13.632;2023-05-23T01:52:33;100329.25;;;17.78;64.88
34237;BME280;20501;45.956;13.632;2023-05-23T01:55:00;100329.31;;;17.85;64.46
34237;BME280;20501;45.956;13.632;2023-05-23T01:57:28;100333.88;;;17.77;64.82
34237;BME280;20501;45.956;13.632;2023-05-23T01:59:54;100328.63;;;17.76;64.70
34237;BME280;20501;45.956;13.632;2023-05-23T02:02:19;100323.91;;;17.70;65.08
34237;BME280;20501;45.956;13.632;2023-05-23T02:04:45;100333.69;;;17.42;66.20
34237;BME280;20501;45.956;13.632;2023-05-23T02:07:10;100331.22;;;17.47;66.00
34237;BME280;20501;45.956;13.632;2023-05-23T02:09:36;100334.00;;;17.32;66.67
34237;BME280;20501;45.956;13.632;2023-05-23T02:12:01;100330.25;;;17.55;66.27
34237;BME280;20501;45.956;13.632;2023-05-23T02:14:27;100328.50;;;17.47;65.65
34237;BME280;20501;45.956;13.632;2023-05-23T02:16:53;100324.66;;;17.42;65.64
34237;BME280;20501;45.956;13.632;2023-05-23T02:19:18;100324.81;;;17.40;66.37
34237;BME280;20501;45.956;13.632;2023-05-23T02:21:44;100320.63;;;17.23;67.86
34237;BME280;20501;45.956;13.632;2023-05-23T02:24:10;100322.88;;;17.34;66.76
34237;BME280;20501;45.956;13.632;2023-05-23T02:26:35;100324.56;;;17.35;66.78
34237;BME280;20501;45.956;13.632;2023-05-23T02:29:01;100324.00;;;17.40;67.09
34237;BME280;20501;45.956;13.632;2023-05-23T02:31:27;100321.63;;;17.37;66.47
34237;BME280;20501;45.956;13.632;2023-05-23T02:33:52;100318.16;;;17.43;66.42
34237;BME280;20501;45.956;13.632;2023-05-23T02:36:17;100317.16;;;17.14;67.44
34237;BME280;20501;45.956;13.632;2023-05-23T02:38:44;100306.50;;;17.34;67.16
34237;BME280;20501;45.956;13.632;2023-05-23T02:41:09;100316.38;;;17.35;66.61
34237;BME280;20501;45.956;13.632;2023-05-23T02:43:35;100311.88;;;17.27;66.04
34237;BME280;20501;45.956;13.632;2023-05-23T02:46:00;100302.66;;;17.28;66.68
34237;BME280;20501;45.956;13.632;2023-05-23T02:48:26;100313.44;;;17.37;66.04
34237;BME280;20501;45.956;13.632;2023-05-23T02:50:51;100313.19;;;17.31;66.51
34237;BME280;20501;45.956;13.632;2023-05-23T02:53:16;100327.13;;;17.22;66.76
34237;BME280;20501;45.956;13.632;2023-05-23T02:55:42;100321.47;;;17.38;66.25
34237;BME280;20501;45.956;13.632;2023-05-23T02:58:08;100314.56;;;17.42;66.32
34237;BME280;20501;45.956;13.632;2023-05-23T03:00:33;100317.66;;;17.39;67.10
34237;BME280;20501;45.956;13.632;2023-05-23T03:02:59;100313.19;;;17.31;67.15
34237;BME280;20501;45.956;13.632;2023-05-23T03:05:24;100317.13;;;17.44;66.93
34237;BME280;20501;45.956;13.632;2023-05-23T03:07:50;100313.97;;;17.10;67.47
34237;BME280;20501;45.956;13.632;2023-05-23T03:10:16;100316.34;;;16.98;67.96
34237;BME280;20501;45.956;13.632;2023-05-23T03:12:42;100314.31;;;16.77;68.46
34237;BME280;20501;45.956;13.632;2023-05-23T03:15:08;100312.44;;;16.93;68.38
34237;BME280;20501;45.956;13.632;2023-05-23T03:17:34;100309.34;;;16.96;68.02
34237;BME280;20501;45.956;13.632;2023-05-23T03:20:00;100308.16;;;16.98;67.75
34237;BME280;20501;45.956;13.632;2023-05-23T03:22:25;100307.56;;;17.03;68.00
34237;BME280;20501;45.956;13.632;2023-05-23T03:24:50;100306.78;;;16.79;68.75
34237;BME280;20501;45.956;13.632;2023-05-23T03:27:16;100302.00;;;16.81;68.17
34237;BME280;20501;45.956;13.632;2023-05-23T03:29:41;100294.84;;;16.80;67.63
34237;BME280;20501;45.956;13.632;2023-05-23T03:32:07;100304.75;;;16.96;67.27
34237;BME280;20501;45.956;13.632;2023-05-23T03:34:33;100312.94;;;17.11;66.62
34237;BME280;20501;45.956;13.632;2023-05-23T03:37:00;100302.84;;;17.27;65.59
34237;BME280;20501;45.956;13.632;2023-05-23T03:39:26;100294.25;;;17.30;65.33
34237;BME280;20501;45.956;13.632;2023-05-23T03:41:51;100307.84;;;17.08;66.49
34237;BME280;20501;45.956;13.632;2023-05-23T03:44:17;100301.16;;;17.26;65.62
34237;BME280;20501;45.956;13.632;2023-05-23T03:46:42;100310.25;;;17.33;65.32
34237;BME280;20501;45.956;13.632;2023-05-23T03:49:08;100309.22;;;17.34;65.45
34237;BME280;20501;45.956;13.632;2023-05-23T03:51:33;100315.44;;;17.28;65.17
34237;BME280;20501;45.956;13.632;2023-05-23T03:53:59;100307.47;;;17.11;65.73
34237;BME280;20501;45.956;13.632;2023-05-23T03:56:24;100308.88;;;17.07;66.51
34237;BME280;20501;45.956;13.632;2023-05-23T03:58:50;100310.19;;;17.11;66.48
34237;BME280;20501;45.956;13.632;2023-05-23T04:01:15;100317.53;;;17.11;65.86
34237;BME280;20501;45.956;13.632;2023-05-23T04:03:41;100307.16;;;17.06;65.67
34237;BME280;20501;45.956;13.632;2023-05-23T04:06:09;100305.22;;;17.00;65.77
34237;BME280;20501;45.956;13.632;2023-05-23T04:08:35;100308.50;;;16.95;65.52
34237;BME280;20501;45.956;13.632;2023-05-23T04:11:00;100311.03;;;17.12;66.34
34237;BME280;20501;45.956;13.632;2023-05-23T04:13:27;100314.16;;;17.09;65.80
34237;BME280;20501;45.956;13.632;2023-05-23T04:15:53;100315.00;;;17.09;66.49
34237;BME280;20501;45.956;13.632;2023-05-23T04:18:20;100323.34;;;16.93;67.34
34237;BME280;20501;45.956;13.632;2023-05-23T04:20:46;100320.81;;;17.06;67.13
34237;BME280;20501;45.956;13.632;2023-05-23T04:23:12;100319.44;;;16.95;67.71
34237;BME280;20501;45.956;13.632;2023-05-23T04:25:37;100315.88;;;16.56;69.56
34237;BME280;20501;45.956;13.632;2023-05-23T04:28:04;100320.22;;;16.51;69.90
34237;BME280;20501;45.956;13.632;2023-05-23T04:30:29;100316.66;;;16.65;69.77
34237;BME280;20501;45.956;13.632;2023-05-23T04:32:55;100320.00;;;16.52;70.02
34237;BME280;20501;45.956;13.632;2023-05-23T04:35:24;100319.09;;;16.60;69.38
34237;BME280;20501;45.956;13.632;2023-05-23T04:37:50;100323.63;;;16.68;69.21
34237;BME280;20501;45.956;13.632;2023-05-23T04:40:23;100312.91;;;16.66;69.02
34237;BME280;20501;45.956;13.632;2023-05-23T04:42:49;100317.59;;;16.73;68.63
34237;BME280;20501;45.956;13.632;2023-05-23T04:45:16;100307.00;;;16.78;68.16
34237;BME280;20501;45.956;13.632;2023-05-23T04:47:44;100311.13;;;16.89;68.49
34237;BME280;20501;45.956;13.632;2023-05-23T04:50:10;100307.09;;;16.84;67.95
34237;BME280;20501;45.956;13.632;2023-05-23T04:52:35;100305.59;;;16.97;68.29
34237;BME280;20501;45.956;13.632;2023-05-23T04:55:01;100315.47;;;16.98;68.09
34237;BME280;20501;45.956;13.632;2023-05-23T04:57:26;100306.97;;;16.93;68.63
34237;BME280;20501;45.956;13.632;2023-05-23T04:59:52;100303.34;;;17.00;68.21
34237;BME280;20501;45.956;13.632;2023-05-23T05:02:18;100305.59;;;16.97;68.52
34237;BME280;20501;45.956;13.632;2023-05-23T05:04:43;100303.84;;;16.81;69.04
34237;BME280;20501;45.956;13.632;2023-05-23T05:07:09;100297.78;;;16.79;68.99
34237;BME280;20501;45.956;13.632;2023-05-23T05:09:35;100304.53;;;16.83;69.04
34237;BME280;20501;45.956;13.632;2023-05-23T05:12:01;100309.72;;;16.93;68.87
34237;BME280;20501;45.956;13.632;2023-05-23T05:14:26;100309.38;;;17.11;68.24
34237;BME280;20501;45.956;13.632;2023-05-23T05:16:52;100302.22;;;16.95;69.13
34237;BME280;20501;45.956;13.632;2023-05-23T05:19:19;100305.00;;;17.01;68.43
34237;BME280;20501;45.956;13.632;2023-05-23T05:21:45;100300.31;;;17.10;67.91
34237;BME280;20501;45.956;13.632;2023-05-23T05:24:11;100295.97;;;17.16;67.44
34237;BME280;20501;45.956;13.632;2023-05-23T05:26:37;100301.44;;;17.16;67.63
34237;BME280;20501;45.956;13.632;2023-05-23T05:29:02;100299.28;;;17.11;68.39
34237;BME280;20501;45.956;13.632;2023-05-23T05:31:28;100306.06;;;17.15;67.96
34237;BME280;20501;45.956;13.632;2023-05-23T05:33:54;100296.06;;;17.23;67.92
34237;BME280;20501;45.956;13.632;2023-05-23T05:36:19;100296.72;;;17.25;68.16
34237;BME280;20501;45.956;13.632;2023-05-23T05:38:46;100299.34;;;17.33;69.14
34237;BME280;20501;45.956;13.632;2023-05-23T05:41:11;100292.63;;;17.36;68.02
34237;BME280;20501;45.956;13.632;2023-05-23T05:43:37;100292.53;;;17.44;68.10
34237;BME280;20501;45.956;13.632;2023-05-23T05:46:02;100290.16;;;17.56;67.56
34237;BME280;20501;45.956;13.632;2023-05-23T05:48:27;100292.66;;;17.57;67.33
34237;BME280;20501;45.956;13.632;2023-05-23T05:50:53;100293.84;;;17.70;66.99
34237;BME280;20501;45.956;13.632;2023-05-23T05:53:18;100292.69;;;17.79;66.71
34237;BME280;20501;45.956;13.632;2023-05-23T05:55:44;100287.09;;;17.87;66.79
34237;BME280;20501;45.956;13.632;2023-05-23T05:58:09;100295.28;;;17.87;66.50
34237;BME280;20501;45.956;13.632;2023-05-23T06:00:35;100288.19;;;17.93;67.29
34237;BME280;20501;45.956;13.632;2023-05-23T06:03:06;100296.69;;;17.98;66.05
34237;BME280;20501;45.956;13.632;2023-05-23T06:05:33;100299.72;;;18.10;65.28
34237;BME280;20501;45.956;13.632;2023-05-23T06:07:58;100289.38;;;18.05;66.51
34237;BME280;20501;45.956;13.632;2023-05-23T06:10:24;100290.69;;;18.09;65.94
34237;BME280;20501;45.956;13.632;2023-05-23T06:12:49;100294.25;;;18.10;66.69
34237;BME280;20501;45.956;13.632;2023-05-23T06:15:15;100283.00;;;18.20;65.71
34237;BME280;20501;45.956;13.632;2023-05-23T06:17:41;100286.25;;;18.30;65.64
34237;BME280;20501;45.956;13.632;2023-05-23T06:20:06;100286.03;;;18.32;66.18
34237;BME280;20501;45.956;13.632;2023-05-23T06:22:32;100290.34;;;18.48;64.71
34237;BME280;20501;45.956;13.632;2023-05-23T06:24:58;100296.69;;;18.48;65.04
34237;BME280;20501;45.956;13.632;2023-05-23T06:27:23;100291.88;;;18.50;65.40
34237;BME280;20501;45.956;13.632;2023-05-23T06:29:49;100288.97;;;18.59;64.91
34237;BME280;20501;45.956;13.632;2023-05-23T06:32:14;100293.44;;;18.66;64.81
34237;BME280;20501;45.956;13.632;2023-05-23T06:34:40;100290.66;;;18.60;64.95
34237;BME280;20501;45.956;13.632;2023-05-23T06:37:05;100287.13;;;18.37;65.55
34237;BME280;20501;45.956;13.632;2023-05-23T06:39:31;100281.66;;;18.66;65.52
34237;BME280;20501;45.956;13.632;2023-05-23T06:41:56;100293.50;;;18.80;65.06
34237;BME280;20501;45.956;13.632;2023-05-23T06:44:22;100287.25;;;18.86;64.86
34237;BME280;20501;45.956;13.632;2023-05-23T06:46:47;100289.34;;;18.84;64.73
34237;BME280;20501;45.956;13.632;2023-05-23T06:49:13;100291.88;;;18.85;65.33
34237;BME280;20501;45.956;13.632;2023-05-23T06:51:39;100285.59;;;18.92;64.57
34237;BME280;20501;45.956;13.632;2023-05-23T06:54:05;100288.22;;;19.07;64.94
34237;BME280;20501;45.956;13.632;2023-05-23T06:56:30;100291.63;;;19.09;64.22
34237;BME280;20501;45.956;13.632;2023-05-23T06:58:56;100282.28;;;18.96;64.14
34237;BME280;20501;45.956;13.632;2023-05-23T07:01:21;100285.72;;;19.12;63.95
34237;BME280;20501;45.956;13.632;2023-05-23T07:03:47;100286.22;;;19.36;63.28
34237;BME280;20501;45.956;13.632;2023-05-23T07:06:12;100280.56;;;19.44;63.63
34237;BME280;20501;45.956;13.632;2023-05-23T07:08:38;100283.53;;;19.49;62.99
34237;BME280;20501;45.956;13.632;2023-05-23T07:11:04;100289.72;;;19.78;62.47
34237;BME280;20501;45.956;13.632;2023-05-23T07:13:30;100287.56;;;19.67;62.38
34237;BME280;20501;45.956;13.632;2023-05-23T07:15:56;100283.34;;;19.64;63.20
34237;BME280;20501;45.956;13.632;2023-05-23T07:18:22;100292.69;;;19.83;62.12
34237;BME280;20501;45.956;13.632;2023-05-23T07:20:47;100291.41;;;19.79;61.76
34237;BME280;20501;45.956;13.632;2023-05-23T07:23:14;100295.84;;;19.80;62.41
34237;BME280;20501;45.956;13.632;2023-05-23T07:25:39;100287.69;;;20.00;61.27
34237;BME280;20501;45.956;13.632;2023-05-23T07:28:07;100288.31;;;20.22;60.72
34237;BME280;20501;45.956;13.632;2023-05-23T07:30:32;100291.28;;;20.34;60.65
34237;BME280;20501;45.956;13.632;2023-05-23T07:32:57;100285.97;;;20.19;60.53
34237;BME280;20501;45.956;13.632;2023-05-23T07:35:23;100279.25;;;20.15;60.63
34237;BME280;20501;45.956;13.632;2023-05-23T07:37:53;100280.84;;;19.69;62.36
34237;BME280;20501;45.956;13.632;2023-05-23T07:40:19;100271.66;;;20.17;61.48
34237;BME280;20501;45.956;13.632;2023-05-23T07:42:45;100280.66;;;20.58;61.10
34237;BME280;20501;45.956;13.632;2023-05-23T07:45:11;100275.81;;;20.53;59.73
34237;BME280;20501;45.956;13.632;2023-05-23T07:47:36;100274.75;;;20.61;59.13
34237;BME280;20501;45.956;13.632;2023-05-23T07:50:02;100278.13;;;20.70;59.68
34237;BME280;20501;45.956;13.632;2023-05-23T07:52:30;100274.78;;;20.48;60.30
34237;BME280;20501;45.956;13.632;2023-05-23T07:54:56;100274.69;;;21.01;60.31
34237;BME280;20501;45.956;13.632;2023-05-23T07:57:22;100263.72;;;21.40;57.64
34237;BME280;20501;45.956;13.632;2023-05-23T07:59:51;100265.81;;;21.45;58.16
34237;BME280;20501;45.956;13.632;2023-05-23T08:02:18;100270.84;;;21.09;58.68
34237;BME280;20501;45.956;13.632;2023-05-23T08:04:43;100263.94;;;21.45;57.94
34237;BME280;20501;45.956;13.632;2023-05-23T08:07:10;100257.19;;;21.41;58.47
34237;BME280;20501;45.956;13.632;2023-05-23T08:09:36;100260.63;;;21.69;55.64
34237;BME280;20501;45.956;13.632;2023-05-23T08:12:02;100259.31;;;21.78;56.47
34237;BME280;20501;45.956;13.632;2023-05-23T08:14:27;100268.03;;;22.00;56.67
34237;BME280;20501;45.956;13.632;2023-05-23T08:16:53;100262.91;;;21.78;55.38
34237;BME280;20501;45.956;13.632;2023-05-23T08:19:18;100252.81;;;21.65;56.60
34237;BME280;20501;45.956;13.632;2023-05-23T08:21:45;100260.03;;;22.24;54.70
34237;BME280;20501;45.956;13.632;2023-05-23T08:24:11;100258.94;;;22.50;53.17
34237;BME280;20501;45.956;13.632;2023-05-23T08:26:37;100252.69;;;22.36;53.40
34237;BME280;20501;45.956;13.632;2023-05-23T08:29:03;100269.50;;;22.53;53.32
34237;BME280;20501;45.956;13.632;2023-05-23T08:31:29;100256.66;;;22.22;53.58
34237;BME280;20501;45.956;13.632;2023-05-23T08:33:56;100259.09;;;22.30;53.54
34237;BME280;20501;45.956;13.632;2023-05-23T08:36:22;100256.19;;;22.50;52.59
34237;BME280;20501;45.956;13.632;2023-05-23T08:38:49;100252.69;;;22.36;51.87
34237;BME280;20501;45.956;13.632;2023-05-23T08:41:18;100256.78;;;22.52;52.83
34237;BME280;20501;45.956;13.632;2023-05-23T08:43:44;100254.69;;;22.04;52.81
34237;BME280;20501;45.956;13.632;2023-05-23T08:46:11;100256.81;;;21.70;53.38
34237;BME280;20501;45.956;13.632;2023-05-23T08:48:37;100252.53;;;22.56;50.61
34237;BME280;20501;45.956;13.632;2023-05-23T08:51:03;100254.59;;;22.36;50.94
34237;BME280;20501;45.956;13.632;2023-05-23T08:53:30;100247.81;;;22.38;50.95
34237;BME280;20501;45.956;13.632;2023-05-23T08:55:58;100255.06;;;21.43;54.20
34237;BME280;20501;45.956;13.632;2023-05-23T08:58:29;100252.50;;;22.13;51.79
34237;BME280;20501;45.956;13.632;2023-05-23T09:00:54;100250.09;;;22.67;50.76
34237;BME280;20501;45.956;13.632;2023-05-23T09:03:21;100255.41;;;22.18;51.61
34237;BME280;20501;45.956;13.632;2023-05-23T09:05:48;100257.78;;;22.58;51.03
34237;BME280;20501;45.956;13.632;2023-05-23T09:08:14;100255.34;;;22.24;51.94
34237;BME280;20501;45.956;13.632;2023-05-23T09:10:41;100245.50;;;22.98;50.83
34237;BME280;20501;45.956;13.632;2023-05-23T09:13:07;100252.38;;;22.88;49.47
34237;BME280;20501;45.956;13.632;2023-05-23T09:15:34;100242.03;;;21.71;51.40
34237;BME280;20501;45.956;13.632;2023-05-23T09:17:59;100242.38;;;22.76;45.61
34237;BME280;20501;45.956;13.632;2023-05-23T09:20:28;100247.59;;;22.15;47.85
34237;BME280;20501;45.956;13.632;2023-05-23T09:22:54;100240.44;;;22.95;46.64
34237;BME280;20501;45.956;13.632;2023-05-23T09:25:20;100239.06;;;22.67;47.29
34237;BME280;20501;45.956;13.632;2023-05-23T09:27:45;100236.19;;;22.36;49.11
34237;BME280;20501;45.956;13.632;2023-05-23T09:30:12;100239.28;;;22.47;49.59
34237;BME280;20501;45.956;13.632;2023-05-23T09:32:38;100241.44;;;21.55;51.40
34237;BME280;20501;45.956;13.632;2023-05-23T09:35:05;100237.81;;;22.44;49.16
34237;BME280;20501;45.956;13.632;2023-05-23T09:37:37;100241.50;;;23.31;45.38
34237;BME280;20501;45.956;13.632;2023-05-23T09:40:08;100237.22;;;22.98;47.14
34237;BME280;20501;45.956;13.632;2023-05-23T09:42:34;100238.72;;;22.38;48.22
34237;BME280;20501;45.956;13.632;2023-05-23T09:45:00;100229.44;;;22.14;48.48
34237;BME280;20501;45.956;13.632;2023-05-23T09:47:26;100231.19;;;23.26;46.76
34237;BME280;20501;45.956;13.632;2023-05-23T09:49:52;100228.00;;;23.41;46.55
34237;BME280;20501;45.956;13.632;2023-05-23T09:52:17;100228.75;;;22.18;49.60
34237;BME280;20501;45.956;13.632;2023-05-23T09:54:46;100231.22;;;23.38;47.03
34237;BME280;20501;45.956;13.632;2023-05-23T09:57:13;100231.63;;;23.54;47.05
34237;BME280;20501;45.956;13.632;2023-05-23T09:59:40;100234.81;;;23.69;46.28
34237;BME280;20501;45.956;13.632;2023-05-23T10:02:15;100226.53;;;23.27;46.99
34237;BME280;20501;45.956;13.632;2023-05-23T10:04:43;100229.16;;;23.64;45.95
34237;BME280;20501;45.956;13.632;2023-05-23T10:07:13;100217.78;;;23.30;48.16
34237;BME280;20501;45.956;13.632;2023-05-23T10:09:41;100226.13;;;23.04;48.54
34237;BME280;20501;45.956;13.632;2023-05-23T10:12:38;100226.19;;;23.77;45.90
34237;BME280;20501;45.956;13.632;2023-05-23T10:15:08;100227.53;;;23.87;46.49
34237;BME280;20501;45.956;13.632;2023-05-23T10:20:13;100228.91;;;24.20;44.88
34237;BME280;20501;45.956;13.632;2023-05-23T10:22:41;100226.03;;;23.72;46.20
34237;BME280;20501;45.956;13.632;2023-05-23T10:25:07;100224.81;;;23.99;46.00
34237;BME280;20501;45.956;13.632;2023-05-23T10:27:37;100229.38;;;24.64;44.08
34237;BME280;20501;45.956;13.632;2023-05-23T10:30:04;100219.63;;;23.90;45.76
34237;BME280;20501;45.956;13.632;2023-05-23T10:32:32;100221.59;;;23.59;45.66
34237;BME280;20501;45.956;13.632;2023-05-23T10:35:22;100219.78;;;24.19;45.55
34237;BME280;20501;45.956;13.632;2023-05-23T10:38:06;100220.72;;;24.49;43.90
34237;BME280;20501;45.956;13.632;2023-05-23T10:40:49;100222.78;;;24.06;45.04
34237;BME280;20501;45.956;13.632;2023-05-23T10:45:50;100223.50;;;24.01;45.21
34237;BME280;20501;45.956;13.632;2023-05-23T10:48:32;100218.63;;;23.73;47.14
34237;BME280;20501;45.956;13.632;2023-05-23T10:51:03;100221.97;;;23.32;48.05
34237;BME280;20501;45.956;13.632;2023-05-23T10:53:30;100220.53;;;23.72;47.49
34237;BME280;20501;45.956;13.632;2023-05-23T10:55:56;100208.41;;;22.82;49.34
34237;BME280;20501;45.956;13.632;2023-05-23T10:58:21;100207.91;;;23.53;46.96
34237;BME280;20501;45.956;13.632;2023-05-23T11:00:55;100209.19;;;22.89;49.34
34237;BME280;20501;45.956;13.632;2023-05-23T11:06:03;100213.50;;;23.46;49.27
34237;BME280;20501;45.956;13.632;2023-05-23T11:08:38;100215.16;;;23.89;49.02
34237;BME280;20501;45.956;13.632;2023-05-23T11:11:06;100215.09;;;23.96;47.99
34237;BME280;20501;45.956;13.632;2023-05-23T11:13:54;100206.84;;;23.23;50.71
34237;BME280;20501;45.956;13.632;2023-05-23T11:16:31;100207.00;;;23.28;51.66
34237;BME280;20501;45.956;13.632;2023-05-23T11:21:46;100200.66;;;23.70;48.11
34237;BME280;20501;45.956;13.632;2023-05-23T11:24:13;100203.06;;;23.78;47.24
34237;BME280;20501;45.956;13.632;2023-05-23T11:26:39;100200.84;;;24.23;46.31
34237;BME280;20501;45.956;13.632;2023-05-23T11:29:08;100199.84;;;24.53;45.31
34237;BME280;20501;45.956;13.632;2023-05-23T11:31:37;100200.56;;;23.16;48.05
34237;BME280;20501;45.956;13.632;2023-05-23T11:34:05;100202.38;;;23.41;47.36
34237;BME280;20501;45.956;13.632;2023-05-23T11:36:31;100199.56;;;23.71;47.44
34237;BME280;20501;45.956;13.632;2023-05-23T11:39:00;100200.66;;;23.82;46.51
34237;BME280;20501;45.956;13.632;2023-05-23T11:41:27;100209.53;;;23.84;46.74
34237;BME280;20501;45.956;13.632;2023-05-23T11:43:53;100207.25;;;23.69;46.46
34237;BME280;20501;45.956;13.632;2023-05-23T11:46:18;100197.50;;;23.24;46.18
34237;BME280;20501;45.956;13.632;2023-05-23T11:48:47;100199.97;;;24.70;42.42
34237;BME280;20501;45.956;13.632;2023-05-23T11:51:13;100203.81;;;24.21;43.61
34237;BME280;20501;45.956;13.632;2023-05-23T11:53:39;100206.22;;;24.18;43.54
34237;BME280;20501;45.956;13.632;2023-05-23T11:56:05;100211.03;;;24.34;42.53
34237;BME280;20501;45.956;13.632;2023-05-23T11:58:35;100216.41;;;24.53;42.83
34237;BME280;20501;45.956;13.632;2023-05-23T12:03:29;100202.50;;;24.12;44.71
34237;BME280;20501;45.956;13.632;2023-05-23T12:05:55;100203.81;;;23.43;47.04
34237;BME280;20501;45.956;13.632;2023-05-23T12:08:21;100208.16;;;23.02;47.57
34237;BME280;20501;45.956;13.632;2023-05-23T12:10:56;100207.53;;;23.49;46.23
34237;BME280;20501;45.956;13.632;2023-05-23T12:13:24;100204.66;;;22.57;48.06
34237;BME280;20501;45.956;13.632;2023-05-23T12:15:55;100213.59;;;23.70;45.83
34237;BME280;20501;45.956;13.632;2023-05-23T12:18:21;100208.84;;;24.36;42.48
34237;BME280;20501;45.956;13.632;2023-05-23T12:20:50;100208.63;;;24.14;43.46
34237;BME280;20501;45.956;13.632;2023-05-23T12:23:23;100211.88;;;23.99;43.14
34237;BME280;20501;45.956;13.632;2023-05-23T12:25:53;100216.19;;;24.19;42.72
34237;BME280;20501;45.956;13.632;2023-05-23T12:28:20;100202.81;;;23.92;42.51
34237;BME280;20501;45.956;13.632;2023-05-23T12:30:46;100192.38;;;23.94;43.44
34237;BME280;20501;45.956;13.632;2023-05-23T12:33:11;100194.03;;;23.29;45.84
34237;BME280;20501;45.956;13.632;2023-05-23T12:35:42;100197.13;;;24.17;44.66
34237;BME280;20501;45.956;13.632;2023-05-23T12:38:08;100187.94;;;24.76;41.67
34237;BME280;20501;45.956;13.632;2023-05-23T12:40:34;100189.69;;;24.30;42.68
34237;BME280;20501;45.956;13.632;2023-05-23T12:42:59;100188.97;;;24.34;41.59
34237;BME280;20501;45.956;13.632;2023-05-23T12:45:34;100189.81;;;23.57;45.34
34237;BME280;20501;45.956;13.632;2023-05-23T12:48:07;100190.75;;;24.17;42.32
34237;BME280;20501;45.956;13.632;2023-05-23T12:50:33;100187.13;;;23.92;42.37
34237;BME280;20501;45.956;13.632;2023-05-23T12:52:58;100185.72;;;24.25;42.00
34237;BME280;20501;45.956;13.632;2023-05-23T12:55:24;100187.59;;;24.61;40.77
34237;BME280;20501;45.956;13.632;2023-05-23T12:57:49;100193.06;;;23.65;43.94
34237;BME280;20501;45.956;13.632;2023-05-23T13:00:15;100198.31;;;24.69;40.79
34237;BME280;20501;45.956;13.632;2023-05-23T13:02:41;100190.81;;;24.81;41.18
34237;BME280;20501;45.956;13.632;2023-05-23T13:05:07;100190.16;;;24.03;43.64
34237;BME280;20501;45.956;13.632;2023-05-23T13:07:33;100204.81;;;23.61;46.89
34237;BME280;20501;45.956;13.632;2023-05-23T13:09:58;100191.16;;;23.78;44.98
34237;BME280;20501;45.956;13.632;2023-05-23T13:12:24;100190.44;;;23.83;43.33
34237;BME280;20501;45.956;13.632;2023-05-23T13:14:49;100191.69;;;23.99;43.18